sensor_id;sensor_type;location;lat;lon;timestamp;pressure;altitude;pressure_sealevel;temperature;humidity
14204;BME280;7185;51.854;6.622;2023-03-21T00:01:00;101382.00;;;13.29;78.54
14204;BME280;7185;51.854;6.622;2023-03-21T00:03:34;101383.94;;;13.21;79.01
14204;BME280;7185;51.854;6.622;2023-03-21T00:06:07;101383.84;;;13.24;79.03
14204;BME280;7185;51.854;6.622;2023-03-21T00:08:39;101379.25;;;13.38;78.30
14204;BME280;7185;51.854;6.622;2023-03-21T00:11:10;101373.47;;;13.15;79.00
14204;BME280;7185;51.854;6.622;2023-03-21T00:13:42;101371.59;;;13.23;78.87
14204;BME280;7185;51.854;6.622;2023-03-21T00:16:15;101368.66;;;13.43;78.23
14204;BME280;7185;51.854;6.622;2023-03-21T00:18:49;101377.59;;;13.31;78.96
14204;BME280;7185;51.854;6.622;2023-03-21T00:21:23;101371.41;;;13.34;78.46
14204;BME280;7185;51.854;6.622;2023-03-21T00:23:58;101365.00;;;13.50;78.26
14204;BME280;7185;51.854;6.622;2023-03-21T00:26:30;101362.22;;;13.58;77.62
14204;BME280;7185;51.854;6.622;2023-03-21T00:29:02;101371.25;;;13.45;77.91
14204;BME280;7185;51.854;6.622;2023-03-21T00:31:34;101364.13;;;13.50;78.07
14204;BME280;7185;51.854;6.622;2023-03-21T00:34:07;101362.69;;;13.30;79.29
14204;BME280;7185;51.854;6.622;2023-03-21T00:36:38;101364.84;;;13.06;80.73
14204;BME280;7185;51.854;6.622;2023-03-21T00:39:10;101357.16;;;12.93;83.10
14204;BME280;7185;51.854;6.622;2023-03-21T00:41:43;101359.94;;;13.36;81.70
14204;BME280;7185;51.854;6.622;2023-03-21T00:44:14;101360.13;;;13.26;82.92
14204;BME280;7185;51.854;6.622;2023-03-21T00:46:46;101362.13;;;13.13;83.79
14204;BME280;7185;51.854;6.622;2023-03-21T00:49:19;101353.19;;;13.21;83.77
14204;BME280;7185;51.854;6.622;2023-03-21T00:51:51;101351.38;;;13.25;84.45
14204;BME280;7185;51.854;6.622;2023-03-21T00:54:22;101348.88;;;13.16;85.17
14204;BME280;7185;51.854;6.622;2023-03-21T00:56:55;101344.56;;;13.12;85.78
14204;BME280;7185;51.854;6.622;2023-03-21T00:59:26;101341.78;;;13.21;85.61
14204;BME280;7185;51.854;6.622;2023-03-21T01:01:58;101343.47;;;13.25;85.60
14204;BME280;7185;51.854;6.622;2023-03-21T01:04:32;101331.63;;;12.99;86.81
14204;BME280;7185;51.854;6.622;2023-03-21T01:07:04;101336.81;;;13.02;87.35
14204;BME280;7185;51.854;6.622;2023-03-21T01:09:36;101329.03;;;12.96;87.95
14204;BME280;7185;51.854;6.622;2023-03-21T01:12:08;101327.16;;;13.04;87.17
14204;BME280;7185;51.854;6.622;2023-03-21T01:14:40;101315.28;;;13.30;85.76
14204;BME280;7185;51.854;6.622;2023-03-21T01:17:12;101320.69;;;13.22;86.39
14204;BME280;7185;51.854;6.622;2023-03-21T01:19:44;101322.97;;;13.44;85.00
14204;BME280;7185;51.854;6.622;2023-03-21T01:22:16;101315.03;;;13.46;84.95
14204;BME280;7185;51.854;6.622;2023-03-21T01:24:48;101320.44;;;13.36;84.89
14204;BME280;7185;51.854;6.622;2023-03-21T01:27:19;101315.44;;;13.22;85.54
14204;BME280;7185;51.854;6.622;2023-03-21T01:29:51;101310.28;;;13.16;85.98
14204;BME280;7185;51.854;6.622;2023-03-21T01:32:23;101313.09;;;13.04;86.16
14204;BME280;7185;51.854;6.622;2023-03-21T01:34:56;101313.38;;;12.88;86.19
14204;BME280;7185;51.854;6.622;2023-03-21T01:37:27;101313.84;;;13.14;85.42
14204;BME280;7185;51.854;6.622;2023-03-21T01:39:59;101309.66;;;13.02;85.57
14204;BME280;7185;51.854;6.622;2023-03-21T01:42:32;101306.94;;;13.06;85.17
14204;BME280;7185;51.854;6.622;2023-03-21T01:48:15;101303.34;;;13.11;84.56
14204;BME280;7185;51.854;6.622;2023-03-21T01:50:48;101310.47;;;13.04;84.54
14204;BME280;7185;51.854;6.622;2023-03-21T01:53:22;101309.53;;;13.08;84.16
14204;BME280;7185;51.854;6.622;2023-03-21T01:56:02;101306.13;;;13.03;83.88
14204;BME280;7185;51.854;6.622;2023-03-21T01:58:34;101304.97;;;13.18;83.25
14204;BME280;7185;51.854;6.622;2023-03-21T02:01:07;101296.06;;;13.25;83.04
14204;BME280;7185;51.854;6.622;2023-03-21T02:03:41;101302.84;;;13.42;82.10
14204;BME280;7185;51.854;6.622;2023-03-21T02:06:29;101295.94;;;13.31;82.09
14204;BME280;7185;51.854;6.622;2023-03-21T02:09:05;101293.47;;;13.23;82.00
14204;BME280;7185;51.854;6.622;2023-03-21T02:11:40;101293.41;;;13.27;81.97
14204;BME280;7185;51.854;6.622;2023-03-21T02:14:17;101294.09;;;13.36;81.79
14204;BME280;7185;51.854;6.622;2023-03-21T02:16:54;101283.63;;;13.33;81.89
14204;BME280;7185;51.854;6.622;2023-03-21T02:19:56;101282.00;;;13.26;81.98
14204;BME280;7185;51.854;6.622;2023-03-21T02:23:17;101283.78;;;13.24;81.79
14204;BME280;7185;51.854;6.622;2023-03-21T02:28:57;101270.34;;;12.91;83.20
14204;BME280;7185;51.854;6.622;2023-03-21T02:31:40;101264.63;;;12.66;84.31
14204;BME280;7185;51.854;6.622;2023-03-21T02:34:41;101261.56;;;12.92;83.87
14204;BME280;7185;51.854;6.622;2023-03-21T02:37:28;101262.41;;;12.93;83.83
14204;BME280;7185;51.854;6.622;2023-03-21T02:40:08;101266.41;;;12.64;85.11
14204;BME280;7185;51.854;6.622;2023-03-21T02:42:50;101251.88;;;12.93;84.13
14204;BME280;7185;51.854;6.622;2023-03-21T02:45:25;101258.69;;;13.04;84.00
14204;BME280;7185;51.854;6.622;2023-03-21T02:48:02;101252.88;;;13.35;82.68
14204;BME280;7185;51.854;6.622;2023-03-21T02:50:40;101253.28;;;13.14;83.34
14204;BME280;7185;51.854;6.622;2023-03-21T02:53:18;101248.63;;;13.28;83.05
14204;BME280;7185;51.854;6.622;2023-03-21T02:55:51;101244.81;;;12.96;85.15
14204;BME280;7185;51.854;6.622;2023-03-21T02:58:24;101240.88;;;12.70;86.37
14204;BME280;7185;51.854;6.622;2023-03-21T03:00:58;101242.13;;;12.99;85.42
14204;BME280;7185;51.854;6.622;2023-03-21T03:03:30;101240.50;;;12.92;85.35
14204;BME280;7185;51.854;6.622;2023-03-21T03:06:03;101240.88;;;12.70;86.92
14204;BME280;7185;51.854;6.622;2023-03-21T03:08:42;101239.13;;;12.69;87.03
14204;BME280;7185;51.854;6.622;2023-03-21T03:11:23;101235.81;;;12.58;87.71
14204;BME280;7185;51.854;6.622;2023-03-21T03:14:14;101228.38;;;12.82;86.81
14204;BME280;7185;51.854;6.622;2023-03-21T03:16:57;101219.97;;;12.61;87.69
14204;BME280;7185;51.854;6.622;2023-03-21T03:19:34;101227.94;;;12.58;88.46
14204;BME280;7185;51.854;6.622;2023-03-21T03:22:09;101225.53;;;12.96;86.83
14204;BME280;7185;51.854;6.622;2023-03-21T03:24:51;101226.44;;;12.93;86.08
14204;BME280;7185;51.854;6.622;2023-03-21T03:27:28;101224.53;;;13.01;86.28
14204;BME280;7185;51.854;6.622;2023-03-21T03:30:03;101227.56;;;12.78;86.79
14204;BME280;7185;51.854;6.622;2023-03-21T03:32:39;101229.00;;;12.96;86.01
14204;BME280;7185;51.854;6.622;2023-03-21T03:35:16;101223.09;;;12.85;86.73
14204;BME280;7185;51.854;6.622;2023-03-21T03:37:52;101231.78;;;12.87;86.25
14204;BME280;7185;51.854;6.622;2023-03-21T03:40:29;101221.38;;;12.81;86.64
14204;BME280;7185;51.854;6.622;2023-03-21T03:43:09;101221.94;;;13.00;85.63
14204;BME280;7185;51.854;6.622;2023-03-21T03:45:46;101219.25;;;13.03;85.44
14204;BME280;7185;51.854;6.622;2023-03-21T03:48:23;101221.34;;;12.84;86.14
14204;BME280;7185;51.854;6.622;2023-03-21T03:50:59;101223.00;;;12.88;86.08
14204;BME280;7185;51.854;6.622;2023-03-21T03:53:36;101215.84;;;12.96;85.52
14204;BME280;7185;51.854;6.622;2023-03-21T03:56:12;101209.94;;;12.83;85.84
14204;BME280;7185;51.854;6.622;2023-03-21T03:58:44;101215.00;;;12.96;85.58
14204;BME280;7185;51.854;6.622;2023-03-21T04:01:16;101213.38;;;12.88;85.41
14204;BME280;7185;51.854;6.622;2023-03-21T04:03:48;101217.75;;;12.88;85.46
14204;BME280;7185;51.854;6.622;2023-03-21T04:06:19;101215.13;;;12.89;85.25
14204;BME280;7185;51.854;6.622;2023-03-21T04:08:51;101217.19;;;12.69;86.11
14204;BME280;7185;51.854;6.622;2023-03-21T04:11:24;101210.84;;;12.81;86.21
14204;BME280;7185;51.854;6.622;2023-03-21T04:13:57;101208.91;;;12.92;85.52
14204;BME280;7185;51.854;6.622;2023-03-21T04:16:28;101209.03;;;12.86;85.30
14204;BME280;7185;51.854;6.622;2023-03-21T04:19:01;101211.94;;;12.69;86.39
14204;BME280;7185;51.854;6.622;2023-03-21T04:21:33;101205.66;;;12.78;86.12
14204;BME280;7185;51.854;6.622;2023-03-21T04:24:05;101205.66;;;12.78;85.40
14204;BME280;7185;51.854;6.622;2023-03-21T04:26:38;101216.94;;;12.86;85.06
14204;BME280;7185;51.854;6.622;2023-03-21T04:29:10;101213.72;;;12.68;85.69
14204;BME280;7185;51.854;6.622;2023-03-21T04:31:42;101211.09;;;12.68;85.62
14204;BME280;7185;51.854;6.622;2023-03-21T04:34:13;101204.66;;;12.83;85.54
14204;BME280;7185;51.854;6.622;2023-03-21T04:36:45;101208.13;;;12.87;85.15
14204;BME280;7185;51.854;6.622;2023-03-21T04:39:16;101203.00;;;12.79;85.86
14204;BME280;7185;51.854;6.622;2023-03-21T04:41:49;101200.00;;;12.51;86.30
14204;BME280;7185;51.854;6.622;2023-03-21T04:44:21;101201.38;;;12.72;86.06
14204;BME280;7185;51.854;6.622;2023-03-21T04:46:53;101206.19;;;12.47;87.39
14204;BME280;7185;51.854;6.622;2023-03-21T04:49:24;101195.91;;;12.31;88.45
14204;BME280;7185;51.854;6.622;2023-03-21T04:51:56;101196.38;;;12.00;90.34
14204;BME280;7185;51.854;6.622;2023-03-21T04:54:28;101190.53;;;12.37;88.74
14204;BME280;7185;51.854;6.622;2023-03-21T04:57:01;101181.75;;;12.38;88.88
14204;BME280;7185;51.854;6.622;2023-03-21T04:59:34;101192.00;;;12.57;88.01
14204;BME280;7185;51.854;6.622;2023-03-21T05:02:05;101195.63;;;12.50;88.46
14204;BME280;7185;51.854;6.622;2023-03-21T05:04:37;101196.19;;;12.67;87.79
14204;BME280;7185;51.854;6.622;2023-03-21T05:07:09;101196.63;;;12.41;88.41
14204;BME280;7185;51.854;6.622;2023-03-21T05:09:41;101197.16;;;12.62;87.82
14204;BME280;7185;51.854;6.622;2023-03-21T05:12:14;101203.41;;;12.56;88.11
14204;BME280;7185;51.854;6.622;2023-03-21T05:14:47;101195.50;;;12.56;88.74
14204;BME280;7185;51.854;6.622;2023-03-21T05:17:19;101194.56;;;12.60;88.84
14204;BME280;7185;51.854;6.622;2023-03-21T05:19:54;101192.28;;;12.38;90.83
14204;BME280;7185;51.854;6.622;2023-03-21T05:22:32;101193.03;;;12.47;90.00
14204;BME280;7185;51.854;6.622;2023-03-21T05:25:09;101195.34;;;12.12;91.02
14204;BME280;7185;51.854;6.622;2023-03-21T05:27:43;101189.09;;;12.18;91.90
14204;BME280;7185;51.854;6.622;2023-03-21T05:30:16;101194.09;;;12.36;91.39
14204;BME280;7185;51.854;6.622;2023-03-21T05:32:48;101196.78;;;12.30;92.00
14204;BME280;7185;51.854;6.622;2023-03-21T05:35:20;101190.94;;;12.13;92.42
14204;BME280;7185;51.854;6.622;2023-03-21T05:37:51;101189.06;;;12.21;92.84
14204;BME280;7185;51.854;6.622;2023-03-21T05:40:23;101185.47;;;12.25;92.54
14204;BME280;7185;51.854;6.622;2023-03-21T05:42:56;101180.28;;;12.22;92.26
14204;BME280;7185;51.854;6.622;2023-03-21T05:45:27;101179.84;;;12.50;91.47
14204;BME280;7185;51.854;6.622;2023-03-21T05:48:00;101178.34;;;12.33;91.53
14204;BME280;7185;51.854;6.622;2023-03-21T05:50:31;101185.28;;;12.37;92.22
14204;BME280;7185;51.854;6.622;2023-03-21T05:53:03;101178.28;;;12.38;91.97
14204;BME280;7185;51.854;6.622;2023-03-21T05:55:34;101182.75;;;12.33;92.99
14204;BME280;7185;51.854;6.622;2023-03-21T05:58:07;101175.56;;;12.41;92.45
14204;BME280;7185;51.854;6.622;2023-03-21T06:00:39;101178.34;;;12.33;92.57
14204;BME280;7185;51.854;6.622;2023-03-21T06:03:10;101186.97;;;12.41;92.49
14204;BME280;7185;51.854;6.622;2023-03-21T06:05:44;101179.47;;;12.18;93.75
14204;BME280;7185;51.854;6.622;2023-03-21T06:08:15;101185.69;;;12.13;94.84
14204;BME280;7185;51.854;6.622;2023-03-21T06:10:47;101182.25;;;12.07;95.04
14204;BME280;7185;51.854;6.622;2023-03-21T06:13:20;101185.47;;;12.25;94.74
14204;BME280;7185;51.854;6.622;2023-03-21T06:15:51;101184.63;;;12.23;94.77
14204;BME280;7185;51.854;6.622;2023-03-21T06:18:23;101188.19;;;12.22;94.68
14204;BME280;7185;51.854;6.622;2023-03-21T06:20:55;101184.75;;;12.15;94.85
14204;BME280;7185;51.854;6.622;2023-03-21T06:23:26;101183.75;;;12.24;94.60
14204;BME280;7185;51.854;6.622;2023-03-21T06:25:58;101175.06;;;12.19;94.52
14204;BME280;7185;51.854;6.622;2023-03-21T06:28:31;101168.63;;;12.38;94.39
14204;BME280;7185;51.854;6.622;2023-03-21T06:31:03;101178.81;;;12.04;94.93
14204;BME280;7185;51.854;6.622;2023-03-21T06:33:34;101171.50;;;12.23;94.85
14204;BME280;7185;51.854;6.622;2023-03-21T06:36:07;101175.97;;;12.19;94.63
14204;BME280;7185;51.854;6.622;2023-03-21T06:38:39;101177.66;;;12.20;94.62
14204;BME280;7185;51.854;6.622;2023-03-21T06:41:10;101170.59;;;12.25;94.41
14204;BME280;7185;51.854;6.622;2023-03-21T06:43:43;101167.47;;;12.00;95.41
14204;BME280;7185;51.854;6.622;2023-03-21T06:46:15;101170.00;;;12.06;95.74
14204;BME280;7185;51.854;6.622;2023-03-21T06:48:47;101169.88;;;12.16;94.72
14204;BME280;7185;51.854;6.622;2023-03-21T06:51:18;101170.66;;;12.21;94.79
14204;BME280;7185;51.854;6.622;2023-03-21T06:53:50;101160.06;;;12.27;94.86
14204;BME280;7185;51.854;6.622;2023-03-21T06:56:22;101163.59;;;12.23;94.77
14204;BME280;7185;51.854;6.622;2023-03-21T06:58:54;101171.00;;;12.54;93.36
14204;BME280;7185;51.854;6.622;2023-03-21T07:01:26;101166.06;;;12.35;93.69
14204;BME280;7185;51.854;6.622;2023-03-21T07:03:59;101169.44;;;12.43;93.09
14204;BME280;7185;51.854;6.622;2023-03-21T07:06:31;101163.22;;;12.48;92.88
14204;BME280;7185;51.854;6.622;2023-03-21T07:09:04;101150.75;;;12.57;91.85
14204;BME280;7185;51.854;6.622;2023-03-21T07:11:36;101162.16;;;12.58;91.68
14204;BME280;7185;51.854;6.622;2023-03-21T07:14:15;101158.56;;;12.62;91.75
14204;BME280;7185;51.854;6.622;2023-03-21T07:16:46;101156.72;;;12.67;90.53
14204;BME280;7185;51.854;6.622;2023-03-21T07:19:18;101164.53;;;12.72;90.77
14204;BME280;7185;51.854;6.622;2023-03-21T07:21:49;101152.19;;;12.75;90.07
14204;BME280;7185;51.854;6.622;2023-03-21T07:24:21;101155.47;;;12.87;89.55
14204;BME280;7185;51.854;6.622;2023-03-21T07:26:52;101158.03;;;12.93;89.07
14204;BME280;7185;51.854;6.622;2023-03-21T07:29:26;101159.97;;;12.82;90.15
14204;BME280;7185;51.854;6.622;2023-03-21T07:31:58;101156.56;;;12.77;89.91
14204;BME280;7185;51.854;6.622;2023-03-21T07:34:29;101163.16;;;12.99;88.92
14204;BME280;7185;51.854;6.622;2023-03-21T07:37:03;101161.91;;;13.19;88.18
14204;BME280;7185;51.854;6.622;2023-03-21T07:39:36;101163.28;;;13.38;87.60
14204;BME280;7185;51.854;6.622;2023-03-21T07:42:07;101164.94;;;13.44;86.86
14204;BME280;7185;51.854;6.622;2023-03-21T07:44:42;101166.28;;;13.20;87.41
14204;BME280;7185;51.854;6.622;2023-03-21T07:47:14;101167.66;;;13.36;87.16
14204;BME280;7185;51.854;6.622;2023-03-21T07:49:45;101164.28;;;13.31;87.40
14204;BME280;7185;51.854;6.622;2023-03-21T07:52:17;101168.94;;;13.17;86.65
14204;BME280;7185;51.854;6.622;2023-03-21T07:54:48;101169.41;;;13.37;86.69
14204;BME280;7185;51.854;6.622;2023-03-21T07:57:20;101164.13;;;13.41;86.31
14204;BME280;7185;51.854;6.622;2023-03-21T07:59:53;101165.78;;;12.99;87.93
14204;BME280;7185;51.854;6.622;2023-03-21T08:02:24;101155.97;;;13.07;86.50
14204;BME280;7185;51.854;6.622;2023-03-21T08:04:56;101159.19;;;13.22;85.87
14204;BME280;7185;51.854;6.622;2023-03-21T08:07:28;101159.78;;;13.38;85.92
14204;BME280;7185;51.854;6.622;2023-03-21T08:09:59;101165.25;;;13.69;84.80
14204;BME280;7185;51.854;6.622;2023-03-21T08:12:31;101170.16;;;13.46;85.13
14204;BME280;7185;51.854;6.622;2023-03-21T08:15:05;101170.03;;;13.52;85.92
14204;BME280;7185;51.854;6.622;2023-03-21T08:17:37;101170.38;;;13.33;85.56
14204;BME280;7185;51.854;6.622;2023-03-21T08:20:11;101159.47;;;13.52;84.71
14204;BME280;7185;51.854;6.622;2023-03-21T08:22:43;101161.50;;;13.81;83.86
14204;BME280;7185;51.854;6.622;2023-03-21T08:25:16;101160.84;;;13.70;83.18
14204;BME280;7185;51.854;6.622;2023-03-21T08:27:49;101158.31;;;13.65;84.96
14204;BME280;7185;51.854;6.622;2023-03-21T08:30:23;101156.53;;;13.67;84.74
14204;BME280;7185;51.854;6.622;2023-03-21T08:32:57;101161.13;;;13.97;84.60
14204;BME280;7185;51.854;6.622;2023-03-21T08:35:29;101170.16;;;13.85;85.38
14204;BME280;7185;51.854;6.622;2023-03-21T08:38:01;101169.44;;;13.78;84.94
14204;BME280;7185;51.854;6.622;2023-03-21T08:40:33;101178.34;;;13.74;85.23
14204;BME280;7185;51.854;6.622;2023-03-21T08:43:05;101172.16;;;13.75;86.03
14204;BME280;7185;51.854;6.622;2023-03-21T08:45:37;101180.66;;;13.88;86.40
14204;BME280;7185;51.854;6.622;2023-03-21T08:48:09;101181.00;;;13.73;86.10
14204;BME280;7185;51.854;6.622;2023-03-21T08:50:41;101187.25;;;13.68;86.62
14204;BME280;7185;51.854;6.622;2023-03-21T08:53:12;101184.84;;;13.97;86.41
14204;BME280;7185;51.854;6.622;2023-03-21T08:55:44;101176.47;;;13.79;87.59
14204;BME280;7185;51.854;6.622;2023-03-21T08:58:16;101193.69;;;13.55;87.38
14204;BME280;7185;51.854;6.622;2023-03-21T09:00:49;101179.94;;;13.81;87.45
14204;BME280;7185;51.854;6.622;2023-03-21T09:03:21;101189.53;;;13.43;89.71
14204;BME280;7185;51.854;6.622;2023-03-21T09:05:53;101188.09;;;13.70;88.95
14204;BME280;7185;51.854;6.622;2023-03-21T09:08:24;101177.88;;;13.55;89.62
14204;BME280;7185;51.854;6.622;2023-03-21T09:10:56;101181.00;;;13.73;88.96
14204;BME280;7185;51.854;6.622;2023-03-21T09:13:28;101172.09;;;13.78;88.48
14204;BME280;7185;51.854;6.622;2023-03-21T09:16:01;101177.72;;;13.61;90.34
14204;BME280;7185;51.854;6.622;2023-03-21T09:18:34;101172.81;;;13.85;89.38
14204;BME280;7185;51.854;6.622;2023-03-21T09:21:20;101167.66;;;13.79;89.03
14204;BME280;7185;51.854;6.622;2023-03-21T09:23:53;101170.44;;;13.73;89.37
14204;BME280;7185;51.854;6.622;2023-03-21T09:26:27;101168.31;;;13.90;89.67
14204;BME280;7185;51.854;6.622;2023-03-21T09:28:59;101164.31;;;13.72;90.25
14204;BME280;7185;51.854;6.622;2023-03-21T09:31:34;101156.97;;;13.46;90.19
14204;BME280;7185;51.854;6.622;2023-03-21T09:34:05;101163.25;;;13.81;89.44
14204;BME280;7185;51.854;6.622;2023-03-21T09:36:37;101161.94;;;13.99;88.44
14204;BME280;7185;51.854;6.622;2023-03-21T09:39:11;101156.38;;;14.13;88.16
14204;BME280;7185;51.854;6.622;2023-03-21T09:41:57;101157.25;;;14.12;87.16
14204;BME280;7185;51.854;6.622;2023-03-21T09:44:44;101158.91;;;13.78;87.85
14204;BME280;7185;51.854;6.622;2023-03-21T09:47:24;101149.19;;;14.18;87.55
14204;BME280;7185;51.854;6.622;2023-03-21T09:50:05;101149.41;;;14.09;87.53
14204;BME280;7185;51.854;6.622;2023-03-21T09:52:44;101149.72;;;14.32;87.03
14204;BME280;7185;51.854;6.622;2023-03-21T09:55:21;101147.06;;;13.96;86.74
14204;BME280;7185;51.854;6.622;2023-03-21T09:58:01;101142.78;;;14.28;86.31
14204;BME280;7185;51.854;6.622;2023-03-21T10:00:37;101145.69;;;14.17;87.29
14204;BME280;7185;51.854;6.622;2023-03-21T10:03:19;101144.88;;;14.14;86.44
14204;BME280;7185;51.854;6.622;2023-03-21T10:05:54;101145.28;;;13.98;86.83
14204;BME280;7185;51.854;6.622;2023-03-21T10:08:32;101136.84;;;14.20;86.50
14204;BME280;7185;51.854;6.622;2023-03-21T10:11:10;101134.59;;;14.05;87.90
14204;BME280;7185;51.854;6.622;2023-03-21T10:13:48;101126.31;;;14.18;87.54
14204;BME280;7185;51.854;6.622;2023-03-21T10:16:26;101120.56;;;14.02;88.97
14204;BME280;7185;51.854;6.622;2023-03-21T10:19:02;101118.47;;;14.17;87.94
14204;BME280;7185;51.854;6.622;2023-03-21T10:21:38;101125.00;;;14.37;87.73
14204;BME280;7185;51.854;6.622;2023-03-21T10:24:15;101119.66;;;14.40;86.69
14204;BME280;7185;51.854;6.622;2023-03-21T10:26:50;101105.78;;;14.64;85.50
14204;BME280;7185;51.854;6.622;2023-03-21T10:29:24;101111.41;;;14.52;86.24
14204;BME280;7185;51.854;6.622;2023-03-21T10:32:08;101108.53;;;14.27;87.09
14204;BME280;7185;51.854;6.622;2023-03-21T10:37:14;101097.03;;;14.29;86.64
14204;BME280;7185;51.854;6.622;2023-03-21T10:39:48;101100.06;;;14.14;86.71
14204;BME280;7185;51.854;6.622;2023-03-21T10:42:23;101100.75;;;13.86;87.21
14204;BME280;7185;51.854;6.622;2023-03-21T10:44:56;101092.41;;;14.03;87.79
14204;BME280;7185;51.854;6.622;2023-03-21T10:47:30;101093.13;;;13.74;89.11
14204;BME280;7185;51.854;6.622;2023-03-21T10:50:04;101083.03;;;13.93;89.25
14204;BME280;7185;51.854;6.622;2023-03-21T10:52:45;101080.03;;;13.70;89.30
14204;BME280;7185;51.854;6.622;2023-03-21T10:55:21;101053.59;;;14.10;89.04
14204;BME280;7185;51.854;6.622;2023-03-21T10:57:56;101059.72;;;14.45;87.47
14204;BME280;7185;51.854;6.622;2023-03-21T11:00:34;101049.09;;;14.48;87.98
14204;BME280;7185;51.854;6.622;2023-03-21T11:03:19;101057.25;;;14.39;86.11
14204;BME280;7185;51.854;6.622;2023-03-21T11:05:54;101057.34;;;14.69;85.95
14204;BME280;7185;51.854;6.622;2023-03-21T11:08:28;101060.47;;;14.83;83.16
14204;BME280;7185;51.854;6.622;2023-03-21T11:11:03;101050.66;;;14.55;84.27
14204;BME280;7185;51.854;6.622;2023-03-21T11:13:37;101054.25;;;14.84;82.76
14204;BME280;7185;51.854;6.622;2023-03-21T11:16:11;101049.91;;;14.83;82.51
14204;BME280;7185;51.854;6.622;2023-03-21T11:18:50;101040.41;;;15.06;82.30
14204;BME280;7185;51.854;6.622;2023-03-21T11:21:22;101046.97;;;15.22;80.79
14204;BME280;7185;51.854;6.622;2023-03-21T11:23:59;101048.63;;;15.55;81.10
14204;BME280;7185;51.854;6.622;2023-03-21T11:26:33;101042.22;;;15.62;80.89
14204;BME280;7185;51.854;6.622;2023-03-21T11:29:19;101031.44;;;14.81;81.52
14204;BME280;7185;51.854;6.622;2023-03-21T11:31:57;101022.94;;;15.02;80.04
14204;BME280;7185;51.854;6.622;2023-03-21T11:34:40;101030.53;;;14.82;79.33
14204;BME280;7185;51.854;6.622;2023-03-21T11:37:18;101027.81;;;14.54;81.39
14204;BME280;7185;51.854;6.622;2023-03-21T11:39:59;101023.56;;;14.80;80.43
14204;BME280;7185;51.854;6.622;2023-03-21T11:42:41;101025.25;;;15.12;80.24
14204;BME280;7185;51.854;6.622;2023-03-21T11:45:15;101030.03;;;15.00;78.76
14204;BME280;7185;51.854;6.622;2023-03-21T11:47:48;101036.16;;;15.02;78.87
14204;BME280;7185;51.854;6.622;2023-03-21T11:50:26;101029.06;;;15.02;79.40
14204;BME280;7185;51.854;6.622;2023-03-21T11:53:14;101028.53;;;14.91;79.17
14204;BME280;7185;51.854;6.622;2023-03-21T11:56:09;101026.31;;;15.07;79.02
14204;BME280;7185;51.854;6.622;2023-03-21T11:58:57;101028.22;;;15.02;79.30
14204;BME280;7185;51.854;6.622;2023-03-21T12:01:37;101027.63;;;15.22;80.12
14204;BME280;7185;51.854;6.622;2023-03-21T12:04:19;101023.97;;;14.96;79.82
14204;BME280;7185;51.854;6.622;2023-03-21T12:07:11;101034.31;;;14.74;79.33
14204;BME280;7185;51.854;6.622;2023-03-21T12:09:54;101021.94;;;14.76;80.00
14204;BME280;7185;51.854;6.622;2023-03-21T12:12:35;101008.13;;;14.97;80.74
14204;BME280;7185;51.854;6.622;2023-03-21T12:15:16;101023.66;;;14.77;78.30
14204;BME280;7185;51.854;6.622;2023-03-21T12:17:56;100991.63;;;14.89;79.57
14204;BME280;7185;51.854;6.622;2023-03-21T12:20:38;100997.44;;;15.01;78.95
14204;BME280;7185;51.854;6.622;2023-03-21T12:28:47;100980.50;;;15.63;77.06
14204;BME280;7185;51.854;6.622;2023-03-21T12:31:26;100985.13;;;15.83;75.75
14204;BME280;7185;51.854;6.622;2023-03-21T12:34:11;100981.28;;;15.67;74.63
14204;BME280;7185;51.854;6.622;2023-03-21T12:37:04;100982.47;;;16.10;73.96
14204;BME280;7185;51.854;6.622;2023-03-21T12:39:39;100983.38;;;16.34;72.75
14204;BME280;7185;51.854;6.622;2023-03-21T12:42:31;100974.72;;;16.29;72.18
14204;BME280;7185;51.854;6.622;2023-03-21T12:45:13;100970.78;;;16.65;73.34
14204;BME280;7185;51.854;6.622;2023-03-21T12:47:48;100975.56;;;16.06;72.09
14204;BME280;7185;51.854;6.622;2023-03-21T12:50:25;100961.94;;;15.91;72.22
14204;BME280;7185;51.854;6.622;2023-03-21T12:53:00;100956.25;;;15.77;73.68
14204;BME280;7185;51.854;6.622;2023-03-21T12:55:35;100961.91;;;15.39;74.43
14204;BME280;7185;51.854;6.622;2023-03-21T12:58:12;100950.69;;;15.86;73.00
14204;BME280;7185;51.854;6.622;2023-03-21T13:00:51;100955.31;;;15.78;73.59
14204;BME280;7185;51.854;6.622;2023-03-21T13:03:28;100948.44;;;15.74;73.89
14204;BME280;7185;51.854;6.622;2023-03-21T13:06:03;100936.38;;;16.17;72.77
14204;BME280;7185;51.854;6.622;2023-03-21T13:08:37;100937.72;;;16.04;72.40
14204;BME280;7185;51.854;6.622;2023-03-21T13:11:13;100935.19;;;16.01;72.64
14204;BME280;7185;51.854;6.622;2023-03-21T13:13:49;100934.88;;;16.57;71.27
14204;BME280;7185;51.854;6.622;2023-03-21T13:16:29;100931.44;;;16.55;70.71
14204;BME280;7185;51.854;6.622;2023-03-21T13:19:12;100925.28;;;16.55;69.80
14204;BME280;7185;51.854;6.622;2023-03-21T13:21:53;100919.84;;;16.58;68.61
14204;BME280;7185;51.854;6.622;2023-03-21T13:24:31;100920.97;;;16.52;68.24
14204;BME280;7185;51.854;6.622;2023-03-21T13:27:05;100908.19;;;16.40;68.81
14204;BME280;7185;51.854;6.622;2023-03-21T13:29:42;100901.97;;;16.87;68.05
14204;BME280;7185;51.854;6.622;2023-03-21T13:32:23;100904.78;;;17.06;67.15
14204;BME280;7185;51.854;6.622;2023-03-21T13:34:58;100899.19;;;16.68;67.82
14204;BME280;7185;51.854;6.622;2023-03-21T13:37:32;100906.44;;;16.63;67.40
14204;BME280;7185;51.854;6.622;2023-03-21T13:40:18;100908.25;;;16.38;68.55
14204;BME280;7185;51.854;6.622;2023-03-21T13:42:53;100904.56;;;16.88;67.54
14204;BME280;7185;51.854;6.622;2023-03-21T13:45:29;100909.56;;;16.50;67.25
14204;BME280;7185;51.854;6.622;2023-03-21T13:48:05;100912.31;;;16.47;67.78
14204;BME280;7185;51.854;6.622;2023-03-21T13:51:00;100904.28;;;16.50;69.44
14204;BME280;7185;51.854;6.622;2023-03-21T13:53:32;100905.47;;;16.65;67.70
14204;BME280;7185;51.854;6.622;2023-03-21T13:56:18;100901.81;;;16.68;67.42